Lotus, Indiana
Current Conditions -  °F | °C
As of 7:15 AM on Saturday 25 Oct 2014 (Local Time) from KI67 Reporting Station
Overcast Overcast  
Wind Chill: 46°   Ceiling: 6000
Heat Index: 48°   Visibility: 10mi
Dew Point: 45°   Wind: 6mph
Humidity: 87%   Direction: 200°SSW
Pressure: 29.99"   Gusts: NA
Location:  39.6086°N, 84.9137°W
Report Text: KI67 251115Z AUTO 20005KT 10SM OVC060 09/07 A2999 RMK AO1
Loading
Personal Weather Stations






























Interactive Weather Map
Tropical Storm Tracking
New forecast layout! Learn more

10-Day Weather Forecast

Advertisements
Track Severe Weather on mobile